createdAt,value
2024-03-01T00:04:44.816Z,99384.13
2024-03-01T00:09:46.514Z,99369.03
2024-03-01T00:14:48.192Z,99369.25
2024-03-01T00:19:50.367Z,99355.38
2024-03-01T00:24:52.254Z,99357.63
2024-03-01T00:29:54.218Z,99355.31
2024-03-01T00:34:55.901Z,99347.97
2024-03-01T00:39:57.623Z,99352.84
2024-03-01T00:44:59.428Z,99352.38
2024-03-01T00:50:01.092Z,99348.69
2024-03-01T00:55:02.804Z,99358.09
2024-03-01T01:00:07.328Z,99353.78
2024-03-01T01:05:09.900Z,99340.31
2024-03-01T01:10:11.875Z,99323.28
2024-03-01T01:15:14.379Z,99335.19
2024-03-01T01:20:16.591Z,99338.22
2024-03-01T01:25:18.476Z,99331.66
2024-03-01T01:30:20.288Z,99324.47
2024-03-01T01:35:21.955Z,99320.97
2024-03-01T01:40:23.731Z,99321.66
2024-03-01T01:45:25.849Z,99315.06
2024-03-01T01:50:27.789Z,99306.75
2024-03-01T01:55:29.998Z,99312.94
2024-03-01T02:00:32.235Z,99295.09
2024-03-01T02:05:34.208Z,99300.56
2024-03-01T02:10:36.047Z,99288.75
2024-03-01T02:15:37.835Z,99289.25
2024-03-01T02:21:08.224Z,99277.00
2024-03-01T02:26:09.975Z,99281.22
2024-03-01T02:31:12.461Z,99284.44
2024-03-01T02:36:14.155Z,99273.31
2024-03-01T02:41:15.767Z,99269.50
2024-03-01T02:46:17.823Z,99267.13
2024-03-01T02:51:19.532Z,99273.38
2024-03-01T02:56:21.284Z,99264.94
2024-03-01T03:01:24.699Z,99263.34
2024-03-01T03:06:26.883Z,99260.38
2024-03-01T03:11:28.536Z,99255.56
2024-03-01T03:16:30.314Z,99263.13
2024-03-01T03:21:32.001Z,99261.59
2024-03-01T03:26:34.273Z,99262.81
2024-03-01T03:31:36.028Z,99265.00
2024-03-01T03:36:37.893Z,99272.16
2024-03-01T03:41:39.799Z,99279.22
2024-03-01T03:46:41.453Z,99265.41
2024-03-01T03:51:43.589Z,99277.19
2024-03-01T03:56:45.260Z,99284.03
2024-03-01T04:01:46.945Z,99276.56
2024-03-01T04:06:48.765Z,99285.72
2024-03-01T04:11:50.659Z,99279.53
2024-03-01T04:16:52.318Z,99265.75
2024-03-01T04:21:54.070Z,99269.41
2024-03-01T04:26:55.768Z,99265.19
2024-03-01T04:31:57.490Z,99251.13
2024-03-01T04:36:59.448Z,99275.13
2024-03-01T04:42:01.883Z,99285.47
2024-03-01T04:47:03.636Z,99279.81
2024-03-01T04:52:05.410Z,99283.91
2024-03-01T04:57:09.049Z,99274.81
2024-03-01T05:02:10.827Z,99274.03
2024-03-01T05:07:15.968Z,99277.72
2024-03-01T05:12:17.999Z,99286.25
2024-03-01T05:17:19.772Z,99300.09
2024-03-01T05:22:25.288Z,99290.16
2024-03-01T05:27:27.085Z,99288.34
2024-03-01T05:32:29.336Z,99297.31
2024-03-01T05:37:31.222Z,99297.69
2024-03-01T05:42:33.218Z,99306.91
2024-03-01T05:47:45.316Z,99297.81
2024-03-01T05:52:50.044Z,99298.66
2024-03-01T05:57:51.813Z,99289.91
2024-03-01T06:02:57.178Z,99304.56
2024-03-01T06:08:00.364Z,99299.44
2024-03-01T06:13:02.155Z,99303.41
2024-03-01T06:18:04.006Z,99306.19
2024-03-01T06:23:05.992Z,99314.78
2024-03-01T06:28:07.684Z,99314.13
2024-03-01T06:33:09.562Z,99301.13
2024-03-01T06:38:11.312Z,99310.88
2024-03-01T06:43:12.994Z,99308.78
2024-03-01T06:48:19.337Z,99314.19
2024-03-01T06:53:23.057Z,99317.53
2024-03-01T06:58:24.682Z,99331.69
2024-03-01T07:03:26.324Z,99327.97
2024-03-01T07:08:28.374Z,99329.41
2024-03-01T07:13:31.079Z,99333.34
2024-03-01T07:18:32.864Z,99335.91
2024-03-01T07:23:34.655Z,99337.94
2024-03-01T07:28:36.518Z,99338.41
2024-03-01T07:33:38.187Z,99343.34
2024-03-01T07:38:40.541Z,99349.09
2024-03-01T07:43:42.235Z,99341.09
2024-03-01T07:48:45.517Z,99343.78
2024-03-01T07:53:48.792Z,99344.19
2024-03-01T07:59:03.975Z,99348.69
2024-03-01T08:04:06.177Z,99350.22
2024-03-01T08:09:19.239Z,99354.56
2024-03-01T08:14:25.808Z,99360.78
2024-03-01T08:19:37.656Z,99365.13
2024-03-01T08:24:42.378Z,99367.63
2024-03-01T08:29:44.212Z,99359.09
2024-03-01T08:34:56.339Z,99357.31
2024-03-01T08:39:58.554Z,99360.31
2024-03-01T08:45:01.057Z,99367.53
2024-03-01T08:50:21.497Z,99382.16
2024-03-01T08:55:40.904Z,99359.19
2024-03-01T09:00:54.442Z,99364.41
2024-03-01T09:05:58.172Z,99367.03
2024-03-01T09:11:00.251Z,99379.22
2024-03-01T09:16:02.396Z,99372.97
2024-03-01T09:21:04.629Z,99370.38
2024-03-01T09:26:11.390Z,99364.28
2024-03-01T09:31:13.263Z,99341.06
2024-03-01T09:36:21.195Z,99353.44
2024-03-01T09:41:50.300Z,99354.09
2024-03-01T09:47:06.194Z,99352.59
2024-03-01T09:52:39.360Z,99356.22
2024-03-01T09:57:53.430Z,99358.97
2024-03-01T10:03:16.918Z,99360.44
2024-03-01T10:08:51.327Z,99368.22
2024-03-01T10:14:11.707Z,99368.28
2024-03-01T10:19:22.982Z,99361.56
2024-03-01T10:24:51.646Z,99356.66
2024-03-01T10:29:56.383Z,99358.00
2024-03-01T10:35:04.664Z,99355.66
2024-03-01T10:40:16.591Z,99364.06
2024-03-01T10:45:27.506Z,99355.66
2024-03-01T10:50:29.893Z,99346.06
2024-03-01T10:55:35.404Z,99344.34
2024-03-01T11:01:00.492Z,99334.69
2024-03-01T11:06:24.737Z,99324.09
2024-03-01T11:11:38.364Z,99316.00
2024-03-01T11:16:43.449Z,99323.91
2024-03-01T11:21:49.685Z,99309.50
2024-03-01T11:26:53.877Z,99312.38
2024-03-01T11:32:05.821Z,99301.03
2024-03-01T11:37:17.442Z,99317.06
2024-03-01T11:42:41.120Z,99326.38
2024-03-01T11:47:56.224Z,99332.25
2024-03-01T11:53:12.220Z,99337.56
2024-03-01T11:58:30.484Z,99339.09
2024-03-01T12:04:37.490Z,99338.97
2024-03-01T12:09:47.828Z,99338.78
2024-03-01T12:14:56.346Z,99327.81
2024-03-01T12:20:02.224Z,99336.50
2024-03-01T12:25:07.724Z,99334.59
2024-03-01T12:30:24.998Z,99326.50
2024-03-01T12:35:54.493Z,99329.50
2024-03-01T12:41:25.796Z,99320.84
2024-03-01T12:46:40.205Z,99319.81
2024-03-01T12:52:14.480Z,99316.66
2024-03-01T12:57:43.742Z,99311.72
2024-03-01T13:03:10.043Z,99321.50
2024-03-01T13:08:18.200Z,99321.78
2024-03-01T13:13:25.889Z,99309.53
2024-03-01T13:18:33.201Z,99315.13
2024-03-01T13:24:07.293Z,99308.69
2024-03-01T13:29:17.281Z,99307.03
2024-03-01T13:34:21.805Z,99303.94
2024-03-01T13:39:34.118Z,99288.13
2024-03-01T13:44:39.157Z,99295.78
2024-03-01T13:49:43.143Z,99292.50
2024-03-01T13:54:44.914Z,99287.19
2024-03-01T13:59:48.149Z,99285.06
2024-03-01T14:04:59.336Z,99277.97
2024-03-01T14:10:03.000Z,99281.53
2024-03-01T14:15:10.123Z,99279.94
2024-03-01T14:20:17.397Z,99281.88
2024-03-01T14:25:19.566Z,99289.25
2024-03-01T14:30:23.829Z,99290.19
2024-03-01T14:35:26.110Z,99287.75
2024-03-01T14:40:28.614Z,99297.75
2024-03-01T14:45:38.440Z,99286.72
2024-03-01T14:50:45.226Z,99293.16
2024-03-01T14:55:47.003Z,99291.88
2024-03-01T15:00:51.142Z,99292.13
2024-03-01T15:05:53.060Z,99291.00
2024-03-01T15:11:05.340Z,99283.81
2024-03-01T15:16:17.380Z,99279.63
2024-03-01T15:21:19.709Z,99277.00
2024-03-01T15:26:21.387Z,99277.00
2024-03-01T15:31:23.681Z,99276.16
2024-03-01T15:36:25.365Z,99287.44
2024-03-01T15:41:27.105Z,99290.34
2024-03-01T15:46:30.487Z,99293.22
2024-03-01T15:51:32.235Z,99294.59
2024-03-01T15:56:34.519Z,99293.28
2024-03-01T16:01:36.627Z,99294.00
2024-03-01T16:06:39.228Z,99288.69
2024-03-01T16:11:42.469Z,99288.56
2024-03-01T16:16:46.796Z,99286.44
2024-03-01T16:21:48.556Z,99291.25
2024-03-01T16:26:50.275Z,99293.53
2024-03-01T16:31:51.982Z,99305.09
2024-03-01T16:36:53.686Z,99303.31
2024-03-01T16:41:56.087Z,99305.59
2024-03-01T16:46:59.895Z,99310.75
2024-03-01T16:52:04.589Z,99319.84
2024-03-01T16:57:09.300Z,99312.44
2024-03-01T17:02:37.973Z,99316.84
2024-03-01T17:07:47.701Z,99310.47
2024-03-01T17:12:56.412Z,99308.13
2024-03-01T17:17:58.670Z,99305.28
2024-03-01T17:23:00.428Z,99313.03
2024-03-01T17:28:02.752Z,99314.22
2024-03-01T17:33:05.468Z,99307.16
2024-03-01T17:38:08.340Z,99315.59
2024-03-01T17:43:10.672Z,99314.25
2024-03-01T17:48:12.377Z,99311.06
2024-03-01T17:53:14.213Z,99316.75
2024-03-01T17:58:15.894Z,99318.94
2024-03-01T18:03:17.627Z,99304.81
2024-03-01T18:08:19.280Z,99313.91
2024-03-01T18:13:21.725Z,99309.53
2024-03-01T18:18:23.610Z,99308.84
2024-03-01T18:23:27.343Z,99304.66
2024-03-01T18:28:28.983Z,99303.81
2024-03-01T18:33:31.053Z,99305.50
2024-03-01T18:38:32.697Z,99305.84
2024-03-01T18:43:34.703Z,99298.78
2024-03-01T18:48:37.110Z,99298.44
2024-03-01T18:53:38.903Z,99295.41
2024-03-01T18:58:40.629Z,99305.00
2024-03-01T19:03:42.638Z,99304.19
2024-03-01T19:08:44.377Z,99304.84
2024-03-01T19:13:46.068Z,99300.63
2024-03-01T19:18:47.852Z,99293.22
2024-03-01T19:23:49.525Z,99301.09
2024-03-01T19:28:52.299Z,99296.22
2024-03-01T19:33:53.956Z,99303.63
2024-03-01T19:38:55.718Z,99295.03
2024-03-01T19:43:57.757Z,99288.16
2024-03-01T19:49:00.247Z,99292.84
2024-03-01T19:54:02.007Z,99290.16
2024-03-01T19:59:03.916Z,99282.25
2024-03-01T20:04:05.893Z,99280.91
2024-03-01T20:09:07.898Z,99280.41
2024-03-01T20:14:09.815Z,99275.00
2024-03-01T20:19:11.588Z,99275.09
2024-03-01T20:24:13.664Z,99270.88
2024-03-01T20:29:15.585Z,99269.03
2024-03-01T20:34:18.357Z,99263.84
2024-03-01T20:39:20.094Z,99271.06
2024-03-01T20:44:21.818Z,99269.69
2024-03-01T20:49:25.004Z,99277.59
2024-03-01T20:54:27.063Z,99279.91
2024-03-01T20:59:28.857Z,99272.19
2024-03-01T21:04:30.728Z,99264.63
2024-03-01T21:09:38.230Z,99270.31
2024-03-01T21:14:40.317Z,99265.25
2024-03-01T21:19:42.336Z,99268.28
2024-03-01T21:24:44.046Z,99267.75
2024-03-01T21:29:45.707Z,99269.09
2024-03-01T21:34:48.073Z,99265.53
2024-03-01T21:39:50.216Z,99258.63
2024-03-01T21:44:52.028Z,99252.25
2024-03-01T21:49:55.760Z,99255.66
2024-03-01T21:54:58.150Z,99253.81
2024-03-01T21:59:59.890Z,99254.66
2024-03-01T22:05:03.612Z,99248.13
2024-03-01T22:10:07.894Z,99251.63
2024-03-01T22:15:10.036Z,99241.22
2024-03-01T22:20:12.146Z,99239.00
2024-03-01T22:25:15.420Z,99234.94
2024-03-01T22:30:17.372Z,99234.06
2024-03-01T22:35:19.121Z,99228.66
2024-03-01T22:40:20.838Z,99235.88
2024-03-01T22:45:25.054Z,99221.94
2024-03-01T22:50:27.301Z,99227.16
2024-03-01T22:55:41.623Z,99235.38
2024-03-01T23:00:50.362Z,99230.84
2024-03-01T23:05:59.426Z,99237.22
2024-03-01T23:11:08.012Z,99241.59
2024-03-01T23:16:09.817Z,99236.88
2024-03-01T23:21:11.840Z,99232.19
2024-03-01T23:26:14.226Z,99233.03
2024-03-01T23:31:15.889Z,99231.88
2024-03-01T23:36:17.667Z,99234.41
2024-03-01T23:41:19.301Z,99230.38
2024-03-01T23:46:21.048Z,99237.97
2024-03-01T23:51:22.786Z,99231.09
2024-03-01T23:56:25.334Z,99228.97
